Terminal Aerodrome Forecast
Issued by NWS Shreveport, LA

Home | Current Version | Previous Version | Text Only | Print | Product List | Glossary On
Versions: 1 2 3 4 5 6 7 8 9 10 11 12 13 14
000
FTUS44 KSHV 210917 AAA
TAFSHV
TAF AMD
KSHV 210917Z 2109/2206 15010KT P6SM OVC008
     FM211600 16011KT P6SM SCT008 BKN011
     FM211800 16011KT P6SM BKN017
     FM212100 16010KT P6SM BKN035
     FM220000 14010KT P6SM SCT040 SCT150 BKN250
     FM220400 16011KT P6SM SCT020 SCT150 BKN250=

USA.gov is the U.S. government's official web portal to all federal, state and local government web resources and services.